KVEL/VEL METAR and TAF weather

Enter ICAO airport designator
Station Type Date Time Source
KVEL METAR 2019/02/22 21:53 UTC NOAA

KVEL 222153Z AUTO 00000KT 10SM CLR M01/M07 A2981 RMK AO2 SLP123 T10111072


Station Type Date Time Source
KVEL Decoded METAR 2019/02/22 21:53 UTC NOAA

VERNAL AIRPORT, UT, United States (KVEL) 40-26N 109-30W 1604M
Feb 22, 2019 - 04:53 PM EST / 2019.02.22 2153 UTC
Wind: Calm:0
Visibility: 10 mile(s):0
Sky conditions: clear
Temperature: 30.0 F (-1.1 C)
Dew Point: 19.0 F (-7.2 C)
Relative Humidity: 63%
Pressure (altimeter): 29.81 in. Hg (1009 hPa)
ob: KVEL 222153Z AUTO 00000KT 10SM CLR M01/M07 A2981 RMK AO2 SLP123 T10111072
cycle: 22

Station Type Date Time Source
KVEL TAF 2019/02/22 18:30 UTC NOAA

TAF KVEL 221728Z 2218/2318 VRB03KT P6SM SCT015 OVC035
FM221900 VRB03KT P6SM SCT030 OVC050
FM230500 VRB04KT P6SM FEW090 SCT200


Example: see airport list